Hove, United Kingdom
Current Conditions -  °F | °C
As of 6:50 AM on Friday 19 Dec 2014 (Local Time) from EGKK Reporting Station
Light Rain Light Rain  
Wind Chill: 54°   Ceiling: 1000
Heat Index: 54°   Visibility: 6mi
Dew Point: 52°   Wind: 13mph
Humidity: 94%   Direction: 230°SW
Pressure: 29.83"   Gusts: NA
Location:  50.83°N, 0.17°W
Report Text: EGKK 190650Z 23011KT 9999 -RA SCT007 BKN010 12/11 Q1010
Loading
Personal Weather Stations






























Interactive Weather Map New forecast layout! Learn more

10-Day Weather Forecast

Advertisements
Track Severe Weather on mobile